sensor_id;sensor_type;location;lat;lon;timestamp;P1;durP1;ratioP1;P2;durP2;ratioP2
4023;SDS011;2026;51.002;13.668;2023-08-17T00:03:47;14.40;;;12.90;;
4023;SDS011;2026;51.002;13.668;2023-08-17T00:08:49;14.13;;;11.90;;
4023;SDS011;2026;51.002;13.668;2023-08-17T00:13:52;13.00;;;11.70;;
4023;SDS011;2026;51.002;13.668;2023-08-17T00:18:56;13.57;;;12.17;;
4023;SDS011;2026;51.002;13.668;2023-08-17T00:23:59;16.43;;;11.60;;
4023;SDS011;2026;51.002;13.668;2023-08-17T00:29:02;12.23;;;11.00;;
4023;SDS011;2026;51.002;13.668;2023-08-17T00:34:06;14.90;;;11.67;;
4023;SDS011;2026;51.002;13.668;2023-08-17T00:39:08;12.60;;;11.23;;
4023;SDS011;2026;51.002;13.668;2023-08-17T00:44:11;12.30;;;10.40;;
4023;SDS011;2026;51.002;13.668;2023-08-17T00:49:15;12.17;;;10.90;;
4023;SDS011;2026;51.002;13.668;2023-08-17T00:54:19;10.90;;;9.80;;
4023;SDS011;2026;51.002;13.668;2023-08-17T00:59:25;14.47;;;11.13;;
4023;SDS011;2026;51.002;13.668;2023-08-17T01:04:38;13.83;;;12.40;;
4023;SDS011;2026;51.002;13.668;2023-08-17T01:09:41;15.13;;;12.90;;
4023;SDS011;2026;51.002;13.668;2023-08-17T01:14:47;14.17;;;12.67;;
4023;SDS011;2026;51.002;13.668;2023-08-17T01:19:53;14.80;;;12.97;;
4023;SDS011;2026;51.002;13.668;2023-08-17T01:24:58;16.27;;;13.90;;
4023;SDS011;2026;51.002;13.668;2023-08-17T01:30:00;16.80;;;13.30;;
4023;SDS011;2026;51.002;13.668;2023-08-17T01:35:04;19.60;;;14.10;;
4023;SDS011;2026;51.002;13.668;2023-08-17T01:40:11;14.73;;;12.80;;
4023;SDS011;2026;51.002;13.668;2023-08-17T01:45:15;20.90;;;14.13;;
4023;SDS011;2026;51.002;13.668;2023-08-17T01:50:18;16.13;;;14.40;;
4023;SDS011;2026;51.002;13.668;2023-08-17T01:55:24;15.13;;;13.53;;
4023;SDS011;2026;51.002;13.668;2023-08-17T02:00:28;15.40;;;13.60;;
4023;SDS011;2026;51.002;13.668;2023-08-17T02:05:31;15.20;;;13.10;;
4023;SDS011;2026;51.002;13.668;2023-08-17T02:10:35;15.60;;;13.00;;
4023;SDS011;2026;51.002;13.668;2023-08-17T02:15:38;14.40;;;12.90;;
4023;SDS011;2026;51.002;13.668;2023-08-17T02:20:40;15.40;;;13.73;;
4023;SDS011;2026;51.002;13.668;2023-08-17T02:25:46;15.33;;;13.73;;
4023;SDS011;2026;51.002;13.668;2023-08-17T02:30:54;21.70;;;14.57;;
4023;SDS011;2026;51.002;13.668;2023-08-17T02:35:57;15.43;;;13.83;;
4023;SDS011;2026;51.002;13.668;2023-08-17T02:41:01;15.77;;;13.83;;
4023;SDS011;2026;51.002;13.668;2023-08-17T02:46:04;17.67;;;14.00;;
4023;SDS011;2026;51.002;13.668;2023-08-17T02:51:11;14.20;;;12.70;;
4023;SDS011;2026;51.002;13.668;2023-08-17T02:56:15;15.87;;;14.23;;
4023;SDS011;2026;51.002;13.668;2023-08-17T03:01:17;16.47;;;13.50;;
4023;SDS011;2026;51.002;13.668;2023-08-17T03:06:23;16.47;;;14.77;;
4023;SDS011;2026;51.002;13.668;2023-08-17T03:11:27;15.77;;;13.60;;
4023;SDS011;2026;51.002;13.668;2023-08-17T03:16:29;17.63;;;14.20;;
4023;SDS011;2026;51.002;13.668;2023-08-17T03:21:33;18.73;;;15.07;;
4023;SDS011;2026;51.002;13.668;2023-08-17T03:26:38;15.03;;;13.47;;
4023;SDS011;2026;51.002;13.668;2023-08-17T03:31:42;15.80;;;13.00;;
4023;SDS011;2026;51.002;13.668;2023-08-17T03:36:45;14.10;;;12.53;;
4023;SDS011;2026;51.002;13.668;2023-08-17T03:41:49;16.60;;;14.70;;
4023;SDS011;2026;51.002;13.668;2023-08-17T03:46:52;16.10;;;13.30;;
4023;SDS011;2026;51.002;13.668;2023-08-17T03:51:55;20.40;;;14.80;;
4023;SDS011;2026;51.002;13.668;2023-08-17T03:56:59;17.00;;;14.20;;
4023;SDS011;2026;51.002;13.668;2023-08-17T04:02:01;15.47;;;13.87;;
4023;SDS011;2026;51.002;13.668;2023-08-17T04:07:04;18.37;;;13.80;;
4023;SDS011;2026;51.002;13.668;2023-08-17T04:12:10;16.03;;;14.23;;
4023;SDS011;2026;51.002;13.668;2023-08-17T04:17:13;16.97;;;14.20;;
4023;SDS011;2026;51.002;13.668;2023-08-17T04:22:16;17.70;;;15.70;;
4023;SDS011;2026;51.002;13.668;2023-08-17T04:27:20;19.23;;;14.67;;
4023;SDS011;2026;51.002;13.668;2023-08-17T04:32:23;18.93;;;15.10;;
4023;SDS011;2026;51.002;13.668;2023-08-17T04:37:26;17.13;;;14.87;;
4023;SDS011;2026;51.002;13.668;2023-08-17T04:42:31;17.77;;;14.80;;
4023;SDS011;2026;51.002;13.668;2023-08-17T04:47:33;17.57;;;14.63;;
4023;SDS011;2026;51.002;13.668;2023-08-17T04:52:37;18.73;;;15.73;;
4023;SDS011;2026;51.002;13.668;2023-08-17T04:57:41;18.07;;;15.90;;
4023;SDS011;2026;51.002;13.668;2023-08-17T05:02:46;18.07;;;15.30;;
4023;SDS011;2026;51.002;13.668;2023-08-17T05:07:49;18.93;;;16.93;;
4023;SDS011;2026;51.002;13.668;2023-08-17T05:12:54;18.23;;;15.50;;
4023;SDS011;2026;51.002;13.668;2023-08-17T05:17:57;19.70;;;14.63;;
4023;SDS011;2026;51.002;13.668;2023-08-17T05:23:00;20.10;;;15.77;;
4023;SDS011;2026;51.002;13.668;2023-08-17T05:28:05;21.53;;;16.00;;
4023;SDS011;2026;51.002;13.668;2023-08-17T05:33:08;17.90;;;15.97;;
4023;SDS011;2026;51.002;13.668;2023-08-17T05:38:12;21.90;;;17.40;;
4023;SDS011;2026;51.002;13.668;2023-08-17T05:43:16;25.73;;;16.30;;
4023;SDS011;2026;51.002;13.668;2023-08-17T05:48:19;18.63;;;15.53;;
4023;SDS011;2026;51.002;13.668;2023-08-17T05:53:23;21.10;;;16.67;;
4023;SDS011;2026;51.002;13.668;2023-08-17T05:58:27;19.73;;;16.30;;
4023;SDS011;2026;51.002;13.668;2023-08-17T06:03:30;18.13;;;15.90;;
4023;SDS011;2026;51.002;13.668;2023-08-17T06:08:33;18.30;;;14.68;;
4023;SDS011;2026;51.002;13.668;2023-08-17T06:13:37;22.20;;;15.97;;
4023;SDS011;2026;51.002;13.668;2023-08-17T06:18:40;20.50;;;16.58;;
4023;SDS011;2026;51.002;13.668;2023-08-17T06:23:43;18.40;;;16.50;;
4023;SDS011;2026;51.002;13.668;2023-08-17T06:28:47;17.37;;;15.57;;
4023;SDS011;2026;51.002;13.668;2023-08-17T06:33:49;18.83;;;16.17;;
4023;SDS011;2026;51.002;13.668;2023-08-17T06:38:52;19.70;;;16.37;;
4023;SDS011;2026;51.002;13.668;2023-08-17T06:43:56;19.60;;;16.45;;
4023;SDS011;2026;51.002;13.668;2023-08-17T06:48:59;20.63;;;16.50;;
4023;SDS011;2026;51.002;13.668;2023-08-17T06:54:02;21.23;;;15.40;;
4023;SDS011;2026;51.002;13.668;2023-08-17T06:59:06;20.60;;;15.80;;
4023;SDS011;2026;51.002;13.668;2023-08-17T07:04:09;21.23;;;17.05;;
4023;SDS011;2026;51.002;13.668;2023-08-17T07:09:12;19.00;;;16.10;;
4023;SDS011;2026;51.002;13.668;2023-08-17T07:14:16;18.70;;;15.35;;
4023;SDS011;2026;51.002;13.668;2023-08-17T07:19:22;19.73;;;17.13;;
4023;SDS011;2026;51.002;13.668;2023-08-17T07:24:45;18.23;;;16.45;;
4023;SDS011;2026;51.002;13.668;2023-08-17T07:29:49;20.47;;;18.17;;
4023;SDS011;2026;51.002;13.668;2023-08-17T07:34:52;18.02;;;15.68;;
4023;SDS011;2026;51.002;13.668;2023-08-17T07:39:55;18.20;;;16.30;;
4023;SDS011;2026;51.002;13.668;2023-08-17T07:44:59;18.52;;;16.60;;
4023;SDS011;2026;51.002;13.668;2023-08-17T07:50:03;18.38;;;16.52;;
4023;SDS011;2026;51.002;13.668;2023-08-17T07:55:06;17.08;;;15.27;;
4023;SDS011;2026;51.002;13.668;2023-08-17T08:00:11;17.08;;;14.88;;
4023;SDS011;2026;51.002;13.668;2023-08-17T08:05:14;16.73;;;15.13;;
4023;SDS011;2026;51.002;13.668;2023-08-17T08:10:17;18.83;;;16.63;;
4023;SDS011;2026;51.002;13.668;2023-08-17T08:15:21;16.75;;;15.05;;
4023;SDS011;2026;51.002;13.668;2023-08-17T08:20:24;16.35;;;14.65;;
4023;SDS011;2026;51.002;13.668;2023-08-17T08:25:27;14.43;;;12.93;;
4023;SDS011;2026;51.002;13.668;2023-08-17T08:30:31;13.32;;;12.13;;
4023;SDS011;2026;51.002;13.668;2023-08-17T08:35:34;16.60;;;13.95;;
4023;SDS011;2026;51.002;13.668;2023-08-17T08:40:37;15.70;;;12.95;;
4023;SDS011;2026;51.002;13.668;2023-08-17T08:45:41;16.77;;;15.07;;
4023;SDS011;2026;51.002;13.668;2023-08-17T08:50:45;17.98;;;16.13;;
4023;SDS011;2026;51.002;13.668;2023-08-17T08:55:51;16.05;;;14.38;;
4023;SDS011;2026;51.002;13.668;2023-08-17T09:00:56;13.90;;;12.48;;
4023;SDS011;2026;51.002;13.668;2023-08-17T09:06:00;13.63;;;12.23;;
4023;SDS011;2026;51.002;13.668;2023-08-17T09:11:03;15.15;;;13.55;;
4023;SDS011;2026;51.002;13.668;2023-08-17T09:16:07;14.88;;;13.38;;
4023;SDS011;2026;51.002;13.668;2023-08-17T09:21:19;15.48;;;13.40;;
4023;SDS011;2026;51.002;13.668;2023-08-17T09:26:22;14.13;;;12.82;;
4023;SDS011;2026;51.002;13.668;2023-08-17T09:31:26;13.27;;;11.88;;
4023;SDS011;2026;51.002;13.668;2023-08-17T09:36:32;12.70;;;11.40;;
4023;SDS011;2026;51.002;13.668;2023-08-17T09:41:40;14.35;;;12.85;;
4023;SDS011;2026;51.002;13.668;2023-08-17T09:46:45;15.63;;;12.82;;
4023;SDS011;2026;51.002;13.668;2023-08-17T09:51:48;12.55;;;11.25;;
4023;SDS011;2026;51.002;13.668;2023-08-17T09:56:53;12.40;;;11.27;;
4023;SDS011;2026;51.002;13.668;2023-08-17T10:01:57;12.30;;;10.82;;
4023;SDS011;2026;51.002;13.668;2023-08-17T10:07:00;12.27;;;10.95;;
4023;SDS011;2026;51.002;13.668;2023-08-17T10:12:06;13.25;;;11.95;;
4023;SDS011;2026;51.002;13.668;2023-08-17T10:17:15;13.05;;;11.52;;
4023;SDS011;2026;51.002;13.668;2023-08-17T10:22:23;11.98;;;10.82;;
4023;SDS011;2026;51.002;13.668;2023-08-17T10:27:28;12.57;;;11.20;;
4023;SDS011;2026;51.002;13.668;2023-08-17T10:32:33;13.68;;;10.80;;
4023;SDS011;2026;51.002;13.668;2023-08-17T10:37:36;13.63;;;11.27;;
4023;SDS011;2026;51.002;13.668;2023-08-17T10:42:40;13.65;;;12.20;;
4023;SDS011;2026;51.002;13.668;2023-08-17T10:47:44;13.23;;;11.70;;
4023;SDS011;2026;51.002;13.668;2023-08-17T10:52:47;12.23;;;10.98;;
4023;SDS011;2026;51.002;13.668;2023-08-17T10:57:51;13.38;;;11.98;;
4023;SDS011;2026;51.002;13.668;2023-08-17T11:02:56;12.15;;;10.82;;
4023;SDS011;2026;51.002;13.668;2023-08-17T11:08:00;12.98;;;11.77;;
4023;SDS011;2026;51.002;13.668;2023-08-17T11:13:03;14.00;;;12.02;;
4023;SDS011;2026;51.002;13.668;2023-08-17T11:18:10;13.07;;;11.68;;
4023;SDS011;2026;51.002;13.668;2023-08-17T11:23:13;12.70;;;11.38;;
4023;SDS011;2026;51.002;13.668;2023-08-17T11:28:16;13.23;;;11.93;;
4023;SDS011;2026;51.002;13.668;2023-08-17T11:33:20;13.05;;;11.70;;
4023;SDS011;2026;51.002;13.668;2023-08-17T11:38:23;13.75;;;11.98;;
4023;SDS011;2026;51.002;13.668;2023-08-17T11:43:26;16.52;;;11.65;;
4023;SDS011;2026;51.002;13.668;2023-08-17T11:48:31;12.50;;;11.20;;
4023;SDS011;2026;51.002;13.668;2023-08-17T11:53:37;12.57;;;11.38;;
4023;SDS011;2026;51.002;13.668;2023-08-17T11:58:42;12.88;;;11.60;;
4023;SDS011;2026;51.002;13.668;2023-08-17T12:03:47;15.52;;;11.73;;
4023;SDS011;2026;51.002;13.668;2023-08-17T12:08:51;12.90;;;11.70;;
4023;SDS011;2026;51.002;13.668;2023-08-17T12:13:53;12.63;;;11.43;;
4023;SDS011;2026;51.002;13.668;2023-08-17T12:18:57;13.25;;;11.88;;
4023;SDS011;2026;51.002;13.668;2023-08-17T12:24:02;12.80;;;11.70;;
4023;SDS011;2026;51.002;13.668;2023-08-17T12:29:06;12.15;;;10.95;;
4023;SDS011;2026;51.002;13.668;2023-08-17T12:34:10;12.35;;;11.15;;
4023;SDS011;2026;51.002;13.668;2023-08-17T12:39:13;13.25;;;11.98;;
4023;SDS011;2026;51.002;13.668;2023-08-17T12:44:16;12.30;;;11.10;;
4023;SDS011;2026;51.002;13.668;2023-08-17T12:49:20;10.90;;;9.88;;
4023;SDS011;2026;51.002;13.668;2023-08-17T12:54:22;12.27;;;11.05;;
4023;SDS011;2026;51.002;13.668;2023-08-17T12:59:25;10.73;;;9.63;;
4023;SDS011;2026;51.002;13.668;2023-08-17T13:04:29;10.65;;;9.55;;
4023;SDS011;2026;51.002;13.668;2023-08-17T13:09:32;11.15;;;10.05;;
4023;SDS011;2026;51.002;13.668;2023-08-17T13:14:35;10.40;;;9.43;;
4023;SDS011;2026;51.002;13.668;2023-08-17T13:19:40;10.82;;;9.93;;
4023;SDS011;2026;51.002;13.668;2023-08-17T13:24:42;10.48;;;9.48;;
4023;SDS011;2026;51.002;13.668;2023-08-17T13:29:45;11.23;;;10.20;;
4023;SDS011;2026;51.002;13.668;2023-08-17T13:34:49;12.27;;;10.48;;
4023;SDS011;2026;51.002;13.668;2023-08-17T13:39:52;11.48;;;10.15;;
4023;SDS011;2026;51.002;13.668;2023-08-17T13:44:55;10.82;;;9.82;;
4023;SDS011;2026;51.002;13.668;2023-08-17T13:49:59;10.13;;;9.10;;
4023;SDS011;2026;51.002;13.668;2023-08-17T13:55:02;11.50;;;10.23;;
4023;SDS011;2026;51.002;13.668;2023-08-17T14:00:05;15.90;;;10.43;;
4023;SDS011;2026;51.002;13.668;2023-08-17T14:05:10;11.75;;;10.50;;
4023;SDS011;2026;51.002;13.668;2023-08-17T14:10:13;10.27;;;8.50;;
4023;SDS011;2026;51.002;13.668;2023-08-17T14:15:29;9.07;;;8.18;;
4023;SDS011;2026;51.002;13.668;2023-08-17T14:20:33;7.75;;;7.05;;
4023;SDS011;2026;51.002;13.668;2023-08-17T14:25:36;8.98;;;8.07;;
4023;SDS011;2026;51.002;13.668;2023-08-17T14:30:39;8.50;;;7.72;;
4023;SDS011;2026;51.002;13.668;2023-08-17T14:35:43;8.23;;;7.40;;
4023;SDS011;2026;51.002;13.668;2023-08-17T14:40:47;9.07;;;8.20;;
4023;SDS011;2026;51.002;13.668;2023-08-17T14:45:49;9.02;;;8.23;;
4023;SDS011;2026;51.002;13.668;2023-08-17T14:50:54;8.25;;;7.43;;
4023;SDS011;2026;51.002;13.668;2023-08-17T14:55:57;8.95;;;8.15;;
4023;SDS011;2026;51.002;13.668;2023-08-17T15:00:59;11.10;;;8.27;;
4023;SDS011;2026;51.002;13.668;2023-08-17T15:06:04;8.80;;;8.00;;
4023;SDS011;2026;51.002;13.668;2023-08-17T15:11:17;10.07;;;9.02;;
4023;SDS011;2026;51.002;13.668;2023-08-17T15:16:20;9.68;;;8.68;;
4023;SDS011;2026;51.002;13.668;2023-08-17T15:21:28;12.98;;;8.65;;
4023;SDS011;2026;51.002;13.668;2023-08-17T15:26:31;10.45;;;9.32;;
4023;SDS011;2026;51.002;13.668;2023-08-17T15:31:34;10.88;;;9.77;;
4023;SDS011;2026;51.002;13.668;2023-08-17T15:36:38;10.48;;;9.32;;
4023;SDS011;2026;51.002;13.668;2023-08-17T15:41:41;10.77;;;9.68;;
4023;SDS011;2026;51.002;13.668;2023-08-17T15:46:44;10.88;;;9.77;;
4023;SDS011;2026;51.002;13.668;2023-08-17T15:51:48;11.15;;;10.10;;
4023;SDS011;2026;51.002;13.668;2023-08-17T15:56:50;11.05;;;9.85;;
4023;SDS011;2026;51.002;13.668;2023-08-17T16:01:53;12.77;;;11.68;;
4023;SDS011;2026;51.002;13.668;2023-08-17T16:06:57;11.80;;;10.43;;
4023;SDS011;2026;51.002;13.668;2023-08-17T16:12:00;12.02;;;10.73;;
4023;SDS011;2026;51.002;13.668;2023-08-17T16:17:03;11.55;;;10.43;;
4023;SDS011;2026;51.002;13.668;2023-08-17T16:22:07;11.90;;;10.80;;
4023;SDS011;2026;51.002;13.668;2023-08-17T16:27:10;17.50;;;11.98;;
4023;SDS011;2026;51.002;13.668;2023-08-17T16:32:13;12.43;;;10.93;;
4023;SDS011;2026;51.002;13.668;2023-08-17T16:37:17;12.48;;;10.73;;
4023;SDS011;2026;51.002;13.668;2023-08-17T16:42:20;11.63;;;10.43;;
4023;SDS011;2026;51.002;13.668;2023-08-17T16:47:22;21.35;;;19.25;;
4023;SDS011;2026;51.002;13.668;2023-08-17T16:52:29;25.38;;;22.50;;
4023;SDS011;2026;51.002;13.668;2023-08-17T16:57:32;18.02;;;16.23;;
4023;SDS011;2026;51.002;13.668;2023-08-17T17:02:35;13.68;;;12.20;;
4023;SDS011;2026;51.002;13.668;2023-08-17T17:07:39;14.50;;;12.30;;
4023;SDS011;2026;51.002;13.668;2023-08-17T17:12:42;12.75;;;11.63;;
4023;SDS011;2026;51.002;13.668;2023-08-17T17:17:44;11.90;;;10.73;;
4023;SDS011;2026;51.002;13.668;2023-08-17T17:22:49;12.77;;;11.57;;
4023;SDS011;2026;51.002;13.668;2023-08-17T17:27:52;13.52;;;12.13;;
4023;SDS011;2026;51.002;13.668;2023-08-17T17:32:54;13.52;;;11.35;;
4023;SDS011;2026;51.002;13.668;2023-08-17T17:37:59;13.50;;;12.20;;
4023;SDS011;2026;51.002;13.668;2023-08-17T17:43:04;12.35;;;11.05;;
4023;SDS011;2026;51.002;13.668;2023-08-17T17:48:06;11.95;;;10.73;;
4023;SDS011;2026;51.002;13.668;2023-08-17T17:53:10;12.60;;;11.40;;
4023;SDS011;2026;51.002;13.668;2023-08-17T17:58:13;13.00;;;11.75;;
4023;SDS011;2026;51.002;13.668;2023-08-17T18:03:16;12.05;;;10.95;;
4023;SDS011;2026;51.002;13.668;2023-08-17T18:08:21;13.75;;;12.35;;
4023;SDS011;2026;51.002;13.668;2023-08-17T18:13:23;12.85;;;11.10;;
4023;SDS011;2026;51.002;13.668;2023-08-17T18:18:26;12.52;;;11.40;;
4023;SDS011;2026;51.002;13.668;2023-08-17T18:23:30;14.73;;;10.32;;
4023;SDS011;2026;51.002;13.668;2023-08-17T18:28:33;13.50;;;11.25;;
4023;SDS011;2026;51.002;13.668;2023-08-17T18:33:36;12.07;;;10.90;;
4023;SDS011;2026;51.002;13.668;2023-08-17T18:38:40;12.00;;;10.63;;
4023;SDS011;2026;51.002;13.668;2023-08-17T18:43:42;12.13;;;10.93;;
4023;SDS011;2026;51.002;13.668;2023-08-17T18:48:45;16.45;;;14.77;;
4023;SDS011;2026;51.002;13.668;2023-08-17T18:53:49;11.90;;;10.82;;
4023;SDS011;2026;51.002;13.668;2023-08-17T18:58:52;13.43;;;11.55;;
4023;SDS011;2026;51.002;13.668;2023-08-17T19:03:56;13.18;;;11.18;;
4023;SDS011;2026;51.002;13.668;2023-08-17T19:09:00;15.98;;;14.38;;
4023;SDS011;2026;51.002;13.668;2023-08-17T19:14:04;12.73;;;11.40;;
4023;SDS011;2026;51.002;13.668;2023-08-17T19:19:09;12.35;;;11.15;;
4023;SDS011;2026;51.002;13.668;2023-08-17T19:24:13;13.30;;;11.70;;
4023;SDS011;2026;51.002;13.668;2023-08-17T19:29:16;14.20;;;12.73;;
4023;SDS011;2026;51.002;13.668;2023-08-17T19:34:19;14.30;;;12.80;;
4023;SDS011;2026;51.002;13.668;2023-08-17T19:39:23;19.00;;;13.70;;
4023;SDS011;2026;51.002;13.668;2023-08-17T19:44:26;13.27;;;11.95;;
4023;SDS011;2026;51.002;13.668;2023-08-17T19:49:28;13.43;;;12.02;;
4023;SDS011;2026;51.002;13.668;2023-08-17T19:54:32;12.77;;;11.55;;
4023;SDS011;2026;51.002;13.668;2023-08-17T19:59:35;15.48;;;13.68;;
4023;SDS011;2026;51.002;13.668;2023-08-17T20:04:38;13.18;;;11.85;;
4023;SDS011;2026;51.002;13.668;2023-08-17T20:09:43;13.80;;;12.50;;
4023;SDS011;2026;51.002;13.668;2023-08-17T20:14:46;15.52;;;11.90;;
4023;SDS011;2026;51.002;13.668;2023-08-17T20:19:49;17.20;;;11.50;;
4023;SDS011;2026;51.002;13.668;2023-08-17T20:24:53;11.68;;;10.57;;
4023;SDS011;2026;51.002;13.668;2023-08-17T20:29:56;13.25;;;11.20;;
4023;SDS011;2026;51.002;13.668;2023-08-17T20:34:59;12.00;;;10.90;;
4023;SDS011;2026;51.002;13.668;2023-08-17T20:40:03;12.50;;;11.27;;
4023;SDS011;2026;51.002;13.668;2023-08-17T20:45:07;13.07;;;10.57;;
4023;SDS011;2026;51.002;13.668;2023-08-17T20:50:10;11.93;;;10.55;;
4023;SDS011;2026;51.002;13.668;2023-08-17T20:55:15;12.13;;;10.45;;
4023;SDS011;2026;51.002;13.668;2023-08-17T21:00:17;11.25;;;10.07;;
4023;SDS011;2026;51.002;13.668;2023-08-17T21:05:20;11.63;;;10.00;;
4023;SDS011;2026;51.002;13.668;2023-08-17T21:10:24;16.85;;;10.80;;
4023;SDS011;2026;51.002;13.668;2023-08-17T21:15:27;12.05;;;10.85;;
4023;SDS011;2026;51.002;13.668;2023-08-17T21:20:30;11.15;;;10.05;;
4023;SDS011;2026;51.002;13.668;2023-08-17T21:25:36;12.77;;;10.45;;
4023;SDS011;2026;51.002;13.668;2023-08-17T21:30:39;11.48;;;10.32;;
4023;SDS011;2026;51.002;13.668;2023-08-17T21:35:41;13.52;;;10.10;;
4023;SDS011;2026;51.002;13.668;2023-08-17T21:40:45;11.73;;;10.63;;
4023;SDS011;2026;51.002;13.668;2023-08-17T21:45:48;11.93;;;10.73;;
4023;SDS011;2026;51.002;13.668;2023-08-17T21:50:51;11.15;;;10.00;;
4023;SDS011;2026;51.002;13.668;2023-08-17T21:55:55;13.05;;;11.23;;
4023;SDS011;2026;51.002;13.668;2023-08-17T22:00:57;12.85;;;11.55;;
4023;SDS011;2026;51.002;13.668;2023-08-17T22:06:00;11.23;;;10.13;;
4023;SDS011;2026;51.002;13.668;2023-08-17T22:11:08;12.93;;;10.30;;
4023;SDS011;2026;51.002;13.668;2023-08-17T22:16:11;11.68;;;10.48;;
4023;SDS011;2026;51.002;13.668;2023-08-17T22:21:14;11.53;;;10.40;;
4023;SDS011;2026;51.002;13.668;2023-08-17T22:26:18;11.23;;;10.13;;
4023;SDS011;2026;51.002;13.668;2023-08-17T22:31:20;13.30;;;10.23;;
4023;SDS011;2026;51.002;13.668;2023-08-17T22:36:23;11.55;;;10.45;;
4023;SDS011;2026;51.002;13.668;2023-08-17T22:41:27;11.60;;;10.50;;
4023;SDS011;2026;51.002;13.668;2023-08-17T22:46:30;11.73;;;10.50;;
4023;SDS011;2026;51.002;13.668;2023-08-17T22:51:33;11.00;;;9.90;;
4023;SDS011;2026;51.002;13.668;2023-08-17T22:56:37;15.50;;;10.63;;
4023;SDS011;2026;51.002;13.668;2023-08-17T23:01:40;13.80;;;11.43;;
4023;SDS011;2026;51.002;13.668;2023-08-17T23:06:42;15.20;;;12.60;;
4023;SDS011;2026;51.002;13.668;2023-08-17T23:11:47;15.30;;;12.23;;
4023;SDS011;2026;51.002;13.668;2023-08-17T23:16:50;15.38;;;11.77;;
4023;SDS011;2026;51.002;13.668;2023-08-17T23:21:52;12.67;;;11.47;;
4023;SDS011;2026;51.002;13.668;2023-08-17T23:26:56;15.03;;;11.20;;
4023;SDS011;2026;51.002;13.668;2023-08-17T23:32:00;12.60;;;10.90;;
4023;SDS011;2026;51.002;13.668;2023-08-17T23:37:23;12.47;;;10.70;;
4023;SDS011;2026;51.002;13.668;2023-08-17T23:42:27;14.20;;;11.67;;
4023;SDS011;2026;51.002;13.668;2023-08-17T23:47:30;13.40;;;12.10;;
4023;SDS011;2026;51.002;13.668;2023-08-17T23:52:33;14.00;;;12.50;;
4023;SDS011;2026;51.002;13.668;2023-08-17T23:57:37;13.20;;;11.57;;
